Time;durP1;ratioP1;P1;durP2;ratioP2;P2;SDS_P1;SDS_P2;PMS_P1;PMS_P2;Temp;Humidity;BMP_temperature;BMP_pressure;BME280_temperature;BME280_humidity;BME280_pressure;Samples;Min_cycle;Max_cycle;Signal;HPM_P1;HPM_P2
2023/09/16 00:02:07;;;;;;;15.23;11.37;;;;;;;14.06;95.62;101221.56;5394373;27;20079;-76
2023/09/16 00:04:39;;;;;;;13.47;12.00;;;;;;;13.95;96.06;101216.53;5375717;27;20023;-76
2023/09/16 00:07:10;;;;;;;13.17;11.90;;;;;;;13.96;96.31;101216.50;5394445;27;20034;-76
2023/09/16 00:09:41;;;;;;;14.43;12.33;;;;;;;13.93;96.45;101215.69;5394141;27;20101;-76
2023/09/16 00:12:13;;;;;;;18.87;11.83;;;;;;;13.90;96.86;101214.00;5393679;27;20050;-75
2023/09/16 00:14:44;;;;;;;15.20;11.70;;;;;;;13.88;97.05;101222.75;5394285;27;20026;-76
2023/09/16 00:17:16;;;;;;;12.43;11.23;;;;;;;13.85;96.92;101216.69;5394072;27;20057;-74
2023/09/16 00:19:48;;;;;;;13.47;12.07;;;;;;;13.82;97.05;101229.84;5393750;27;20027;-75
2023/09/16 00:22:21;;;;;;;16.27;13.02;;;;;;;13.74;97.08;101234.38;5393564;27;20030;-75
2023/09/16 00:24:52;;;;;;;14.27;12.75;;;;;;;13.92;96.62;101242.78;5375249;27;20082;-75
2023/09/16 00:27:25;;;;;;;15.97;14.40;;;;;;;13.77;96.74;101242.19;5375560;27;20418;-76
2023/09/16 00:29:56;;;;;;;;;;;;;;;13.88;95.21;101244.59;5393931;27;20030;-74
2023/09/16 00:32:28;;;;;;;21.98;19.88;;;;;;;13.74;96.76;101241.38;5393106;27;19914;-76
2023/09/16 00:34:59;;;;;;;25.03;22.40;;;;;;;13.72;97.64;101238.78;5374824;27;20031;-75
2023/09/16 00:37:31;;;;;;;21.87;19.90;;;;;;;13.64;97.94;101227.59;5393827;27;20019;-76
2023/09/16 00:40:06;;;;;;;20.30;18.43;;;;;;;13.64;98.63;101222.34;5375617;27;20033;-76
2023/09/16 00:42:38;;;;;;;20.58;18.30;;;;;;;13.60;98.71;101225.91;5394526;27;20282;-76
2023/09/16 00:45:10;;;;;;;21.57;19.60;;;;;;;13.53;98.87;101229.53;5394402;27;20473;-76
2023/09/16 00:47:41;;;;;;;20.20;17.90;;;;;;;13.46;99.17;101224.41;5394101;27;20031;-76
2023/09/16 00:50:17;;;;;;;18.70;17.00;;;;;;;13.54;99.12;101224.28;5394424;27;20361;-75
2023/09/16 00:52:57;;;;;;;17.27;15.57;;;;;;;13.39;99.96;101214.91;5374944;27;20577;-75
2023/09/16 00:55:28;;;;;;;17.02;15.35;;;;;;;13.33;99.70;101209.81;5374837;27;20054;-75
2023/09/16 00:58:02;;;;;;;15.47;13.60;;;;;;;13.32;99.50;101198.47;5393520;27;20046;-75
2023/09/16 01:00:33;;;;;;;14.65;13.05;;;;;;;13.30;99.97;101207.22;5393360;27;20026;-76
2023/09/16 01:03:06;;;;;;;14.13;12.77;;;;;;;13.28;99.93;101206.34;5393011;27;20034;-75
2023/09/16 01:05:38;;;;;;;14.07;12.43;;;;;;;13.22;100.00;101202.09;5392612;27;20026;-75
2023/09/16 01:08:11;;;;;;;16.10;11.73;;;;;;;13.27;99.94;101202.03;5374835;27;20042;-75
2023/09/16 01:10:43;;;;;;;13.77;11.88;;;;;;;13.10;100.00;101202.31;5393583;27;20041;-76
2023/09/16 01:13:15;;;;;;;13.90;12.60;;;;;;;13.04;100.00;101197.16;5395040;27;20026;-75
2023/09/16 01:15:59;;;;;;;12.82;11.45;;;;;;;13.07;100.00;101203.22;5394462;27;20130;-78
2023/09/16 01:18:38;;;;;;;14.18;12.65;;;;;;;13.05;100.00;101204.13;5374227;27;20109;-76
2023/09/16 01:21:10;;;;;;;13.82;11.68;;;;;;;13.01;100.00;101203.31;5393626;27;20116;-77
2023/09/16 01:23:43;;;;;;;12.87;11.10;;;;;;;13.00;100.00;101203.34;5392621;27;20113;-76
2023/09/16 01:26:15;;;;;;;11.48;10.38;;;;;;;12.94;100.00;101202.56;5373942;27;20022;-76
2023/09/16 01:28:46;;;;;;;12.33;11.03;;;;;;;12.93;100.00;101189.50;5373874;27;20167;-76
2023/09/16 01:31:18;;;;;;;12.57;11.27;;;;;;;12.92;100.00;101193.00;5373963;27;20036;-77
2023/09/16 01:33:52;;;;;;;13.97;12.37;;;;;;;12.91;100.00;101205.22;5392821;27;20480;-76
2023/09/16 01:36:28;;;;;;;14.65;13.23;;;;;;;12.90;100.00;101206.09;5373831;27;20030;-75
2023/09/16 01:39:05;;;;;;;16.48;14.93;;;;;;;12.86;100.00;101203.56;5383420;27;20026;-75
2023/09/16 01:41:38;;;;;;;17.00;15.48;;;;;;;12.82;100.00;101200.13;5350754;27;20378;-77
2023/09/16 01:44:09;;;;;;;17.00;15.30;;;;;;;12.82;100.00;101199.28;5348374;27;20027;-76
2023/09/16 01:46:41;;;;;;;18.20;16.40;;;;;;;12.75;100.00;101199.38;5349157;27;20470;-76
2023/09/16 01:49:12;;;;;;;17.30;14.93;;;;;;;12.75;100.00;101188.00;5361791;27;20110;-79
2023/09/16 01:51:43;;;;;;;15.83;14.43;;;;;;;12.74;100.00;101189.78;5349060;27;20430;-76
2023/09/16 01:54:15;;;;;;;14.37;12.87;;;;;;;12.69;100.00;101186.38;5348666;27;20109;-76
2023/09/16 01:56:47;;;;;;;14.83;13.33;;;;;;;12.62;100.00;101176.88;5369938;27;20026;-78
2023/09/16 01:59:19;;;;;;;14.25;12.75;;;;;;;12.62;100.00;101181.25;5369392;27;20037;-77
2023/09/16 02:01:50;;;;;;;14.13;11.63;;;;;;;12.58;100.00;101180.44;5351364;27;20034;-77
2023/09/16 02:04:21;;;;;;;13.80;12.40;;;;;;;12.57;100.00;101176.97;5370413;27;20027;-77
2023/09/16 02:06:53;;;;;;;12.63;11.33;;;;;;;12.53;100.00;101183.13;5351814;27;20038;-77
2023/09/16 02:09:25;;;;;;;12.77;11.47;;;;;;;12.53;100.00;101179.66;5351403;27;20027;-77
2023/09/16 02:11:56;;;;;;;12.17;10.63;;;;;;;12.50;100.00;101177.06;5334072;27;20538;-77
2023/09/16 02:14:27;;;;;;;12.10;10.80;;;;;;;12.46;100.00;101178.88;5351614;27;20035;-78
2023/09/16 02:16:59;;;;;;;15.77;10.87;;;;;;;12.45;100.00;101181.50;5333498;27;20058;-77
2023/09/16 02:19:32;;;;;;;11.53;10.37;;;;;;;12.36;100.00;101182.50;5369556;27;20045;-77
2023/09/16 02:22:04;;;;;;;12.60;11.30;;;;;;;12.37;100.00;101174.63;5370097;27;20374;-77
2023/09/16 02:24:35;;;;;;;12.83;10.10;;;;;;;12.31;100.00;101184.31;5369058;27;20033;-77
2023/09/16 02:27:06;;;;;;;11.10;10.00;;;;;;;12.37;100.00;101184.22;5351303;27;20389;-76
2023/09/16 02:29:38;;;;;;;11.97;10.70;;;;;;;12.37;100.00;101179.84;5369707;27;20033;-76
2023/09/16 02:32:09;;;;;;;12.50;10.20;;;;;;;12.29;100.00;101180.84;5350572;27;20058;-77
2023/09/16 02:34:41;;;;;;;15.60;9.83;;;;;;;12.37;100.00;101176.38;5342910;27;20097;-76
2023/09/16 02:37:12;;;;;;;12.57;11.27;;;;;;;12.31;100.00;101179.09;5329690;27;20039;-75
2023/09/16 02:39:43;;;;;;;12.80;10.17;;;;;;;12.27;100.00;101178.28;5347219;27;20039;-78
2023/09/16 02:42:15;;;;;;;11.93;10.10;;;;;;;12.27;100.00;101172.16;5329235;27;20027;-76
2023/09/16 02:44:46;;;;;;;12.00;10.77;;;;;;;12.28;100.00;101179.97;5347967;27;20483;-76
2023/09/16 02:47:20;;;;;;;11.70;10.37;;;;;;;12.30;100.00;101177.34;5329465;27;20118;-77
2023/09/16 02:49:51;;;;;;;13.18;10.73;;;;;;;12.30;100.00;101180.84;5347557;27;20104;-77
2023/09/16 02:52:23;;;;;;;14.43;10.63;;;;;;;12.30;100.00;101182.56;5329040;27;20084;-87
2023/09/16 02:54:54;;;;;;;11.73;9.80;;;;;;;12.25;100.00;101177.41;5329344;27;20058;-77
2023/09/16 02:57:26;;;;;;;13.73;10.47;;;;;;;12.22;100.00;101187.94;5329016;27;20023;-77
2023/09/16 02:59:57;;;;;;;15.50;10.33;;;;;;;12.21;100.00;101171.34;5311888;27;20037;-76
2023/09/16 03:02:28;;;;;;;11.83;10.63;;;;;;;12.21;100.00;101167.88;5347260;27;20135;-76
2023/09/16 03:05:00;;;;;;;12.03;10.30;;;;;;;12.23;100.00;101176.56;5329277;27;20466;-77
2023/09/16 03:07:31;;;;;;;12.73;10.70;;;;;;;12.16;100.00;101173.16;5347117;27;20058;-76
2023/09/16 03:10:03;;;;;;;15.03;11.17;;;;;;;12.08;100.00;101167.19;5311960;27;20031;-76
2023/09/16 03:12:34;;;;;;;13.53;10.67;;;;;;;11.99;100.00;101173.41;5328692;27;20108;-76
2023/09/16 03:15:06;;;;;;;12.43;10.63;;;;;;;12.06;100.00;101163.75;5328959;27;20130;-76
2023/09/16 03:17:38;;;;;;;13.88;11.55;;;;;;;12.09;100.00;101166.31;5347149;27;20058;-76
2023/09/16 03:20:09;;;;;;;13.10;11.80;;;;;;;12.03;100.00;101162.00;5346977;27;20062;-75
2023/09/16 03:22:41;;;;;;;13.77;10.83;;;;;;;12.06;100.00;101163.75;5328409;28;20031;-76
2023/09/16 03:25:12;;;;;;;12.60;10.97;;;;;;;12.03;100.00;101166.38;5347214;27;20283;-75
2023/09/16 03:27:44;;;;;;;12.73;11.30;;;;;;;12.06;100.00;101163.75;5347085;27;20049;-76
2023/09/16 03:30:17;;;;;;;16.77;11.23;;;;;;;12.06;100.00;101162.84;5347036;27;20509;-75
2023/09/16 03:32:49;;;;;;;14.23;11.40;;;;;;;11.99;100.00;101159.47;5328377;27;20066;-75
2023/09/16 03:35:21;;;;;;;13.27;11.20;;;;;;;11.95;100.00;101161.25;5328807;28;20039;-76
2023/09/16 03:37:53;;;;;;;15.57;11.25;;;;;;;11.95;100.00;101157.78;5328807;28;20476;-76
2023/09/16 03:40:24;;;;;;;15.57;12.10;;;;;;;11.95;100.00;101163.88;5346875;28;20019;-76
2023/09/16 03:42:56;;;;;;;13.90;10.63;;;;;;;11.96;100.00;101156.88;5347456;28;20032;-76
2023/09/16 03:45:27;;;;;;;13.93;11.83;;;;;;;11.93;100.00;101162.13;5311633;28;20474;-75
2023/09/16 03:47:58;;;;;;;13.37;11.60;;;;;;;11.96;100.00;101151.66;5347251;28;20084;-75
2023/09/16 03:50:30;;;;;;;13.23;11.83;;;;;;;11.95;100.00;101156.03;5311562;28;20063;-76
2023/09/16 03:53:02;;;;;;;12.23;10.70;;;;;;;11.90;100.00;101147.34;5294609;28;20046;-77
2023/09/16 03:55:33;;;;;;;13.37;11.47;;;;;;;11.88;100.00;101140.41;5348091;28;20343;-75
2023/09/16 03:58:05;;;;;;;14.68;12.57;;;;;;;11.90;100.00;101139.50;5349698;28;20347;-75
2023/09/16 04:00:36;;;;;;;12.50;11.30;;;;;;;11.89;100.00;101147.38;5331281;28;20066;-76
2023/09/16 04:03:08;;;;;;;13.33;12.03;;;;;;;11.84;100.00;101144.81;5328574;28;20114;-75
2023/09/16 04:05:39;;;;;;;13.33;11.17;;;;;;;11.84;100.00;101142.19;5346851;28;20031;-76
2023/09/16 04:08:11;;;;;;;13.43;11.60;;;;;;;11.85;100.00;101150.03;5346781;28;20020;-76
2023/09/16 04:10:42;;;;;;;13.27;11.97;;;;;;;11.85;100.00;101149.16;5346829;28;20470;-75
2023/09/16 04:13:14;;;;;;;12.37;11.07;;;;;;;11.79;100.00;101144.88;5346978;28;20031;-76
2023/09/16 04:15:45;;;;;;;14.30;11.40;;;;;;;11.81;100.00;101150.94;5347017;28;20112;-76
2023/09/16 04:18:17;;;;;;;15.03;12.50;;;;;;;11.73;100.00;101147.53;5347073;28;20031;-76
2023/09/16 04:20:48;;;;;;;12.80;11.50;;;;;;;11.75;100.00;101152.75;5328343;28;20043;-76
2023/09/16 04:23:20;;;;;;;14.17;12.77;;;;;;;11.72;100.00;101152.78;5328360;28;20042;-76
2023/09/16 04:25:56;;;;;;;13.70;12.10;;;;;;;11.66;100.00;101146.75;5346605;28;20063;-76
2023/09/16 04:28:29;;;;;;;12.70;11.40;;;;;;;11.67;100.00;101148.50;5328390;28;20129;-76
2023/09/16 04:31:00;;;;;;;12.98;11.68;;;;;;;11.67;100.00;101151.09;5346593;28;20027;-76
2023/09/16 04:33:31;;;;;;;12.90;11.60;;;;;;;11.61;100.00;101145.94;5346434;28;20070;-76
2023/09/16 04:36:04;;;;;;;14.60;11.60;;;;;;;11.62;100.00;101146.81;5346537;28;20510;-77
2023/09/16 04:38:36;;;;;;;15.90;11.95;;;;;;;11.54;100.00;101139.06;5347135;27;20041;-76
2023/09/16 04:41:08;;;;;;;14.05;12.27;;;;;;;11.61;100.00;101142.47;5350666;27;20035;-76
2023/09/16 04:43:39;;;;;;;13.03;11.70;;;;;;;11.53;100.00;101139.94;5349880;27;20498;-77
2023/09/16 04:46:11;;;;;;;14.57;12.43;;;;;;;11.50;100.00;101138.22;5350921;27;20028;-77
2023/09/16 04:48:42;;;;;;;14.93;13.27;;;;;;;11.50;100.00;101140.84;5333516;27;20031;-77
2023/09/16 04:51:14;;;;;;;14.90;12.77;;;;;;;11.41;100.00;101137.47;5332710;27;20492;-76
2023/09/16 04:53:45;;;;;;;13.57;12.00;;;;;;;11.41;100.00;101143.53;5332822;27;20046;-77
2023/09/16 04:56:19;;;;;;;13.40;12.03;;;;;;;11.44;100.00;101140.91;5352792;27;20027;-77
2023/09/16 04:58:51;;;;;;;14.25;12.68;;;;;;;11.48;100.00;101149.59;5352746;27;20031;-78
2023/09/16 05:01:24;;;;;;;14.73;12.73;;;;;;;11.44;100.00;101142.66;5352111;27;20103;-79
2023/09/16 05:03:57;;;;;;;17.95;13.40;;;;;;;11.45;100.00;101149.63;5350337;27;20050;-77
2023/09/16 05:06:28;;;;;;;19.00;13.32;;;;;;;11.41;100.00;101137.47;5349879;27;20051;-78
2023/09/16 05:08:59;;;;;;;14.63;12.50;;;;;;;11.41;100.00;101140.94;5331833;27;20061;-77
2023/09/16 05:11:31;;;;;;;18.70;13.23;;;;;;;11.39;100.00;101134.00;5314306;27;20062;-78
2023/09/16 05:14:02;;;;;;;14.07;12.67;;;;;;;11.43;100.00;101141.78;5349345;27;20031;-78
2023/09/16 05:16:34;;;;;;;14.37;13.07;;;;;;;11.40;100.00;101151.38;5349432;27;20076;-77
2023/09/16 05:19:05;;;;;;;16.37;13.47;;;;;;;11.41;100.00;101135.72;5330856;27;20154;-77
2023/09/16 05:21:37;;;;;;;15.23;13.27;;;;;;;11.42;100.00;101152.25;5330402;27;20094;-79
2023/09/16 05:24:08;;;;;;;17.97;13.77;;;;;;;11.42;100.00;101144.41;5358117;27;20548;-79
2023/09/16 05:26:40;;;;;;;18.87;13.30;;;;;;;11.41;100.00;101137.47;5337313;27;20079;-80
2023/09/16 05:29:11;;;;;;;14.40;12.80;;;;;;;11.44;100.00;101147.88;5352495;27;20089;-79
2023/09/16 05:31:42;;;;;;;15.33;13.73;;;;;;;11.46;100.00;101140.88;5330507;27;20058;-79
2023/09/16 05:34:14;;;;;;;16.27;13.37;;;;;;;11.47;100.00;101150.44;5350079;27;20146;-79
2023/09/16 05:36:45;;;;;;;15.97;14.37;;;;;;;11.54;100.00;101143.41;5359326;27;20383;-80
2023/09/16 05:39:17;;;;;;;16.83;13.30;;;;;;;11.52;100.00;101150.41;5374486;27;20033;-79
2023/09/16 05:41:49;;;;;;;15.97;14.00;;;;;;;11.54;100.00;101141.66;5363702;27;20038;-80
2023/09/16 05:44:21;;;;;;;14.63;13.07;;;;;;;11.59;100.00;101142.50;5371487;27;20050;-80
2023/09/16 05:46:52;;;;;;;17.00;13.35;;;;;;;11.63;100.00;101141.56;5371017;27;20347;-79
2023/09/16 05:49:24;;;;;;;18.13;14.70;;;;;;;11.65;100.00;101139.78;5370978;27;20050;-79
2023/09/16 05:51:55;;;;;;;15.37;13.67;;;;;;;11.71;100.00;101146.69;5353481;27;20030;-78
2023/09/16 05:54:27;;;;;;;18.77;14.87;;;;;;;11.75;100.00;101145.81;5354891;27;20143;-79
2023/09/16 05:56:58;;;;;;;15.50;13.87;;;;;;;11.81;100.00;101147.47;5372467;27;20480;-79
2023/09/16 05:59:29;;;;;;;16.83;15.13;;;;;;;11.84;100.00;101150.88;5354300;27;20031;-79
2023/09/16 06:02:01;;;;;;;16.97;15.40;;;;;;;11.85;100.00;101149.16;5370659;27;20071;-78
2023/09/16 06:04:32;;;;;;;17.33;15.60;;;;;;;11.92;100.00;101145.63;5370254;27;20384;-78
2023/09/16 06:07:04;;;;;;;15.93;14.23;;;;;;;12.01;100.00;101155.06;5333852;27;20034;-77
2023/09/16 06:09:35;;;;;;;16.40;14.70;;;;;;;12.03;100.00;101148.94;5370870;27;20027;-79
2023/09/16 06:12:06;;;;;;;17.10;13.57;;;;;;;12.07;100.00;101146.28;5351524;27;20031;-79
2023/09/16 06:14:39;;;;;;;15.13;13.60;;;;;;;12.16;100.00;101154.88;5370583;27;20048;-78
2023/09/16 06:17:10;;;;;;;15.43;13.43;;;;;;;12.24;100.00;101153.94;5351586;27;20027;-81
2023/09/16 06:19:42;;;;;;;15.40;13.27;;;;;;;12.30;100.00;101161.66;5351332;27;20061;-80
2023/09/16 06:22:13;;;;;;;18.23;12.87;;;;;;;12.38;100.00;101163.28;5358363;27;20100;-79
2023/09/16 06:24:45;;;;;;;14.82;13.35;;;;;;;12.47;100.00;101164.03;5347701;27;20493;-79
2023/09/16 06:27:17;;;;;;;14.03;12.73;;;;;;;12.54;100.00;101161.31;5329708;27;20110;-78
2023/09/16 06:29:48;;;;;;;17.92;16.00;;;;;;;12.66;100.00;101162.03;5329543;27;20095;-80
2023/09/16 06:32:21;;;;;;;16.15;14.13;;;;;;;12.71;100.00;101161.06;5348834;27;20019;-79
2023/09/16 06:34:52;;;;;;;16.50;14.90;;;;;;;12.77;100.00;101157.50;5347233;27;20087;-80
2023/09/16 06:37:24;;;;;;;17.30;15.23;;;;;;;12.91;100.00;101172.94;5349822;27;20031;-80
2023/09/16 06:39:55;;;;;;;16.57;14.83;;;;;;;13.06;100.00;101170.09;5348119;27;20103;-80
2023/09/16 06:42:27;;;;;;;17.30;14.33;;;;;;;13.14;100.00;101168.19;5363831;27;20458;-80
2023/09/16 06:44:58;;;;;;;17.33;15.63;;;;;;;13.24;100.00;101179.38;5369731;27;20035;-80
2023/09/16 06:47:29;;;;;;;16.73;14.93;;;;;;;13.39;100.00;101170.41;5371583;27;20023;-81
2023/09/16 06:50:01;;;;;;;17.70;16.00;;;;;;;13.48;100.00;101172.84;5370196;27;20026;-80
2023/09/16 06:52:32;;;;;;;19.92;17.70;;;;;;;13.66;100.00;101176.88;5352734;27;20043;-81
2023/09/16 06:55:05;;;;;;;20.10;18.10;;;;;;;13.80;100.00;101179.25;5348738;27;20110;-78
2023/09/16 06:57:36;;;;;;;20.40;18.30;;;;;;;13.96;100.00;101178.91;5347101;27;20067;-79
2023/09/16 07:00:08;;;;;;;23.20;20.90;;;;;;;14.13;100.00;101173.34;5347058;27;20454;-79
2023/09/16 07:02:39;;;;;;;23.15;20.92;;;;;;;14.24;100.00;101163.47;5346631;27;20045;-79
2023/09/16 07:05:11;;;;;;;22.40;20.30;;;;;;;14.38;100.00;101164.03;5346223;27;20023;-79
2023/09/16 07:07:42;;;;;;;22.63;20.23;;;;;;;14.55;100.00;101165.41;5328138;27;20036;-80
2023/09/16 07:10:14;;;;;;;24.23;20.83;;;;;;;14.72;100.00;101171.16;5329717;27;20029;-79
2023/09/16 07:12:45;;;;;;;22.93;20.73;;;;;;;14.86;100.00;101168.22;5346148;27;20080;-80
2023/09/16 07:15:19;;;;;;;22.50;20.27;;;;;;;15.09;100.00;101167.63;5347616;27;20027;-79
2023/09/16 07:17:50;;;;;;;22.58;19.85;;;;;;;15.26;100.00;101167.19;5346653;27;20089;-79
2023/09/16 07:20:22;;;;;;;20.23;18.33;;;;;;;15.51;100.00;101169.16;5348690;27;20050;-79
2023/09/16 07:22:55;;;;;;;20.42;18.35;;;;;;;15.62;100.00;101159.22;5327610;27;20027;-80
2023/09/16 07:25:27;;;;;;;19.40;17.50;;;;;;;15.79;100.00;101166.66;5347483;27;20344;-79
2023/09/16 07:27:59;;;;;;;18.30;16.35;;;;;;;15.97;100.00;101165.28;5346327;27;20071;-80
2023/09/16 07:30:30;;;;;;;17.73;16.03;;;;;;;16.09;100.00;101169.31;5347606;27;20060;-79
2023/09/16 07:33:02;;;;;;;18.77;16.85;;;;;;;16.28;100.00;101166.97;5346670;27;20355;-79
2023/09/16 07:35:34;;;;;;;19.60;15.43;;;;;;;16.47;100.00;101174.28;5347623;27;20039;-80
2023/09/16 07:38:05;;;;;;;18.75;16.45;;;;;;;16.61;100.00;101166.81;5347091;28;20470;-79
2023/09/16 07:40:40;;;;;;;21.67;17.77;;;;;;;16.73;100.00;101179.59;5347866;28;20034;-79
2023/09/16 07:43:12;;;;;;;16.83;15.32;;;;;;;16.81;100.00;101181.13;5346888;28;20027;-80
2023/09/16 07:45:43;;;;;;;17.38;15.50;;;;;;;16.95;100.00;101176.28;5347489;28;20118;-80
2023/09/16 07:48:17;;;;;;;15.43;14.07;;;;;;;17.08;100.00;101176.75;5347143;28;20419;-80
2023/09/16 07:50:48;;;;;;;19.88;14.73;;;;;;;17.29;100.00;101173.41;5347210;28;20054;-80
2023/09/16 07:53:21;;;;;;;15.75;12.77;;;;;;;17.47;99.42;101185.06;5346031;28;20036;-81
2023/09/16 07:55:52;;;;;;;14.07;12.63;;;;;;;17.53;99.04;101189.25;5347061;28;20027;-80
2023/09/16 07:58:23;;;;;;;14.20;12.03;;;;;;;17.69;99.12;101181.66;5347173;28;20027;-79
2023/09/16 08:00:55;;;;;;;13.33;12.10;;;;;;;17.76;96.05;101187.56;5347676;28;20118;-79
2023/09/16 08:03:26;;;;;;;13.37;12.10;;;;;;;17.83;94.95;101189.91;5346213;28;20055;-79
2023/09/16 08:05:58;;;;;;;13.20;11.83;;;;;;;18.07;94.50;101189.13;5311355;28;20042;-80
2023/09/16 08:08:29;;;;;;;11.30;10.27;;;;;;;18.17;93.29;101186.03;5328138;28;20027;-79
2023/09/16 08:11:00;;;;;;;13.90;10.50;;;;;;;18.20;93.10;101188.56;5347378;28;20530;-79
2023/09/16 08:13:33;;;;;;;16.23;10.63;;;;;;;18.38;93.58;101188.78;5347302;27;20080;-79
2023/09/16 08:16:04;;;;;;;12.18;10.70;;;;;;;18.51;90.96;101197.09;5352420;27;20103;-78
2023/09/16 08:18:35;;;;;;;14.20;10.97;;;;;;;18.59;92.34;101192.34;5350293;27;20149;-79
2023/09/16 08:21:07;;;;;;;12.87;10.03;;;;;;;18.71;90.36;101196.31;5333917;27;20038;-80
2023/09/16 08:23:38;;;;;;;11.90;10.03;;;;;;;18.82;91.73;101201.13;5350075;27;20042;-79
2023/09/16 08:26:09;;;;;;;11.73;9.60;;;;;;;19.01;89.50;101191.56;5333654;27;20119;-80
2023/09/16 08:28:41;;;;;;;11.23;9.40;;;;;;;19.08;90.85;101198.31;5350128;27;20342;-79
2023/09/16 08:31:12;;;;;;;15.03;9.57;;;;;;;19.28;87.74;101204.53;5351143;27;20027;-79
2023/09/16 08:33:43;;;;;;;12.10;9.87;;;;;;;19.53;89.00;101212.28;5356916;27;20019;-79
2023/09/16 08:36:15;;;;;;;11.67;9.63;;;;;;;19.68;85.81;101208.09;5353088;27;20114;-78
2023/09/16 08:38:46;;;;;;;13.83;9.93;;;;;;;19.82;84.82;101216.31;5378732;27;20461;-79
2023/09/16 08:41:23;;;;;;;13.10;9.47;;;;;;;19.95;85.06;101223.72;5378847;27;20019;-78
2023/09/16 08:43:58;;;;;;;13.00;9.15;;;;;;;19.94;81.74;101225.47;5353321;27;20056;-79
2023/09/16 08:46:33;;;;;;;10.25;9.25;;;;;;;20.09;82.41;101221.28;5371348;27;20484;-79
2023/09/16 08:49:09;;;;;;;10.43;9.23;;;;;;;20.30;83.16;101221.22;5372726;27;20022;-79
2023/09/16 08:51:43;;;;;;;12.13;10.70;;;;;;;20.64;83.62;101222.31;5371528;27;20472;-80
2023/09/16 08:54:18;;;;;;;14.68;11.07;;;;;;;20.97;82.28;101234.84;5372069;27;20034;-78
2023/09/16 08:56:49;;;;;;;15.00;10.75;;;;;;;21.32;80.96;101230.44;5371033;27;20035;-80
2023/09/16 08:59:21;;;;;;;12.37;10.63;;;;;;;21.39;79.61;101225.69;5373642;27;20027;-79
2023/09/16 09:01:52;;;;;;;14.63;11.10;;;;;;;21.57;78.67;101227.41;5375173;27;20026;-78
2023/09/16 09:04:25;;;;;;;13.73;9.73;;;;;;;21.78;76.81;101230.75;5367863;27;20026;-79
2023/09/16 09:06:58;;;;;;;12.25;11.02;;;;;;;22.20;75.93;101226.72;5355434;27;20022;-78
2023/09/16 09:09:30;;;;;;;11.27;9.85;;;;;;;22.71;73.22;101225.72;5339884;27;20407;-78
2023/09/16 09:12:02;;;;;;;;;;;;;;;23.78;67.89;101225.66;5354571;27;20026;-78
2023/09/16 09:14:35;;;;;;;11.77;10.30;;;;;;;23.41;67.21;101225.22;5372391;27;20029;-80
2023/09/16 09:17:09;;;;;;;11.23;9.38;;;;;;;24.04;65.72;101232.06;5350011;27;20038;-82
2023/09/16 09:19:42;;;;;;;10.70;9.63;;;;;;;24.08;63.23;101241.56;5358072;27;20154;-80
2023/09/16 09:22:13;;;;;;;9.95;9.05;;;;;;;23.46;63.34;101245.31;5356841;27;20054;-80
2023/09/16 09:24:46;;;;;;;11.73;9.15;;;;;;;23.35;65.15;101247.75;5352458;27;20027;-83
2023/09/16 09:27:17;;;;;;;11.10;9.35;;;;;;;24.01;63.54;101243.75;5350840;27;20023;-80
2023/09/16 09:29:49;;;;;;;13.52;8.68;;;;;;;24.50;62.51;101239.78;5352358;27;20038;-80
2023/09/16 09:32:21;;;;;;;9.07;7.90;;;;;;;24.69;60.00;101243.97;5334042;27;20104;-81
2023/09/16 09:34:52;;;;;;;93.28;20.25;;;;;;;25.26;57.09;101249.09;5339227;27;20043;-82
2023/09/16 09:37:24;;;;;;;45.45;12.77;;;;;;;25.51;56.06;101241.25;5368530;27;20037;-80
2023/09/16 09:40:14;;;;;;;15.45;8.18;;;;;;;25.83;55.51;101250.53;5361905;27;20022;-78
2023/09/16 09:42:51;;;;;;;9.18;7.75;;;;;;;25.97;53.85;101251.41;5377276;27;20513;-81
2023/09/16 09:45:25;;;;;;;10.13;8.38;;;;;;;25.67;52.60;101249.91;5373646;27;20014;-81
2023/09/16 09:47:56;;;;;;;11.02;7.22;;;;;;;25.53;53.35;101258.00;5371531;27;20071;-80
2023/09/16 09:50:29;;;;;;;;;;;;;;;26.60;53.91;101254.03;5337220;27;20031;-80
2023/09/16 09:53:02;;;;;;;8.63;6.40;;;;;;;26.27;54.73;101255.53;5371599;27;19954;-80
2023/09/16 09:55:34;;;;;;;10.45;6.28;;;;;;;26.69;51.30;101251.59;5336096;27;20026;-78
2023/09/16 09:58:05;;;;;;;;;;;;;;;28.23;48.21;101256.91;5354094;27;20033;-79
2023/09/16 10:00:45;;;;;;;8.18;7.38;;;;;;;27.42;48.61;101248.91;5353918;27;19958;-80
2023/09/16 10:03:18;;;;;;;10.45;7.35;;;;;;;28.06;48.33;101242.16;5370761;27;20031;-80
2023/09/16 10:05:50;;;;;;;10.52;7.35;;;;;;;28.24;45.80;101238.03;5370405;27;20083;-80
2023/09/16 10:08:22;;;;;;;9.70;7.90;;;;;;;28.33;45.70;101229.22;5372543;27;20026;-80
2023/09/16 10:10:54;;;;;;;;;;;;;;;30.04;43.51;101238.16;5352508;27;20058;-80
2023/09/16 10:13:25;;;;;;;8.75;7.85;;;;;;;28.59;43.62;101222.72;5370240;27;19907;-80
2023/09/16 10:16:00;;;;;;;9.88;7.95;;;;;;;28.89;45.13;101227.38;5370133;27;20055;-80
2023/09/16 10:18:32;;;;;;;8.75;7.15;;;;;;;29.59;45.00;101230.44;5369593;27;20014;-80
2023/09/16 10:21:03;;;;;;;7.97;7.28;;;;;;;29.24;44.28;101228.97;5351686;27;20037;-79
2023/09/16 10:23:35;;;;;;;9.40;8.00;;;;;;;29.50;42.80;101231.25;5350718;27;20035;-80
2023/09/16 10:26:10;;;;;;;16.98;8.10;;;;;;;29.32;42.54;101215.75;5334649;27;20329;-79
2023/09/16 10:28:46;;;;;;;10.07;8.35;;;;;;;28.73;43.75;101219.75;5369273;27;20025;-82
2023/09/16 10:31:18;;;;;;;10.63;8.05;;;;;;;30.09;41.62;101227.88;5371244;27;20037;-79
2023/09/16 10:33:51;;;;;;;9.23;6.65;;;;;;;30.55;41.93;101225.59;5370024;27;20039;-80
2023/09/16 10:36:25;;;;;;;8.00;6.80;;;;;;;30.83;39.93;101215.88;5369409;27;20043;-81
2023/09/16 10:38:58;;;;;;;10.23;8.05;;;;;;;30.68;38.83;101217.25;5351605;27;20030;-85
2023/09/16 10:41:31;;;;;;;8.30;7.30;;;;;;;30.79;40.18;101217.13;5369815;27;20106;-82
2023/09/16 10:44:04;;;;;;;7.63;6.63;;;;;;;30.99;39.95;101211.75;5350966;27;20076;-83
2023/09/16 10:46:36;;;;;;;9.02;6.30;;;;;;;31.59;38.89;101220.47;5369003;27;20030;-82
2023/09/16 10:49:07;;;;;;;15.65;7.07;;;;;;;31.41;38.02;101208.72;5367312;27;20023;-83
2023/09/16 10:51:45;;;;;;;8.05;7.22;;;;;;;31.72;37.62;101211.19;5340726;27;20037;-82
2023/09/16 10:54:31;;;;;;;13.00;7.45;;;;;;;31.43;39.29;101209.44;5360308;27;20114;-83
2023/09/16 10:57:14;;;;;;;8.73;7.18;;;;;;;31.34;38.94;101199.53;5370953;27;20022;-82
2023/09/16 10:59:51;;;;;;;8.23;7.38;;;;;;;31.78;38.60;101205.22;5352277;27;20109;-84
2023/09/16 11:03:08;;;;;;;9.90;7.05;;;;;;;33.06;37.25;101201.56;5354857;27;20029;-82
2023/09/16 11:05:40;;;;;;;9.40;7.60;;;;;;;32.88;34.82;101203.44;5287436;28;20036;-83
2023/09/16 11:08:12;;;;;;;10.05;6.88;;;;;;;32.68;36.46;101200.06;5281936;28;20032;-83
2023/09/16 11:10:44;;;;;;;10.57;7.47;;;;;;;33.78;34.50;101204.09;5324936;27;20387;-82
2023/09/16 11:13:15;;;;;;;9.93;6.93;;;;;;;34.28;32.77;101199.72;5357150;27;20019;-83
2023/09/16 11:15:47;;;;;;;7.65;6.85;;;;;;;34.62;32.93;101204.19;5335430;27;20507;-83
2023/09/16 11:18:20;;;;;;;10.75;7.43;;;;;;;35.10;31.93;101192.69;5348173;27;20027;-83
2023/09/16 11:20:53;;;;;;;7.63;6.88;;;;;;;35.48;30.67;101198.41;5331052;27;20366;-84
2023/09/16 11:23:25;;;;;;;8.35;7.65;;;;;;;35.82;30.39;101200.03;5348016;27;20023;-82
2023/09/16 11:25:57;;;;;;;9.32;8.32;;;;;;;35.67;31.08;101189.88;5349708;27;20499;-84
2023/09/16 11:28:29;;;;;;;9.40;7.47;;;;;;;35.54;31.00;101187.72;5347974;27;20095;-85
2023/09/16 11:31:01;;;;;;;10.90;7.88;;;;;;;35.72;30.42;101190.19;5331286;27;20364;-85
2023/09/16 11:33:35;;;;;;;12.02;7.78;;;;;;;35.73;30.61;101183.75;5347421;27;20106;-85